x

Monterey - 27nm Wnw Of Monterey, Ca (46042) Wave Buoy

1:50pm - Tue 2nd Sep 2014 All times are PDT. -7 hours from GMT.

  • Sig Wave height 5.6ft
  • Swell Direction
  • Peak Period 8s
  • Average Period 7s
  • Wind
    9mph
  • Sea Temp 64°f
  • Air Temp 61°f
  • Sea Pressure 1012.1mb
  • Monterey - 27nm Wnw Of Monterey, Ca
  • Monterey - 27nm Wnw Of Monterey, Ca

More Historic Weather Station data

Upgrade to MSW Pro to gain access to the past 30 days of data for over 8000 Wavebouys and Weather Stations around the globe.

Join Pro

Comparision Forecast

View Surf forecast
   
Tue 09/02 1:50pm 5.5ft 8s 7s 9
mph
1012.1mb 64f 61f
12:50pm 6ft 9s 7s 7 9 mph 1012.7mb 64f 61f
11:50am 7ft 8s 7s 4 7 mph 1012.9mb 64f 61f
10:50am 6ft 9s 7s 7 9 mph 1012.5mb 64f 61f
9:50am 6ft 8s 7s 9 11 mph 1012.4mb 64f 60f
8:50am 6ft 8s 7s 9 11 mph 1012.2mb 64f 60f
7:50am 5ft 8s 6s 11 16 mph 1011.7mb 64f 60f
6:50am 5ft 8s 6s 13 16 mph 1011mb 64f 61f
5:50am 5.5ft 7s 6s 13 18 mph 1010.5mb 64f 61f
4:50am 5.5ft 8s 7s 13 18 mph 1010.2mb 64f 61f
3:50am 5ft 8s 7s 13 16 mph 1010.2mb 64f 62f
2:50am 5ft 8s 6s 11 16 mph 1010.2mb 64f 62f
1:50am 6ft 8s 6s 11 13 mph 1010.3mb 64f 62f
12:50am 6ft 8s 6s 13 16 mph 1010.4mb 64f 62f
Mon 09/01 11:50pm 6ft 8s 6s 13 16 mph 1010.3mb 64f 62f
10:50pm 6.5ft 8s 6s 16 18 mph 1010.3mb 64f 62f
9:50pm 7ft 8s 6s 18 20 mph 1010.2mb 64f 62f
8:50pm 6.5ft 9s 6s 16 20 mph 1009.9mb 64f 62f
7:50pm 7ft 8s 6s 20 25 mph 1009.1mb 64f 62f
6:50pm 6.5ft 9s 6s 22 25 mph 1008.9mb 64f 62f
5:50pm 7ft 8s 6s 20 25 mph 1009.2mb 64f 63f
4:50pm 6ft 8s 6s 18 22 mph 1009.6mb 64f 63f
3:50pm 6.5ft 10s 7s 16 20 mph 1010mb 64f 62f
2:50pm 6.5ft 9s 7s 16 20 mph 1010.2mb 64f 62f
1:50pm 8ft 9s 7s 16 18 mph 1010.7mb 64f 61f
12:50pm 7.5ft 8s 7s 11 13 mph 1011.1mb 64f 61f
11:50am 7ft 9s 7s 9 13 mph 1011.7mb 64f 61f
10:50am 7ft 9s 7s 9 11 mph 1011.9mb 63f 61f
9:50am 8ft 9s 7s 11 13 mph 1011.9mb 63f 61f
8:50am 8ft 9s 7s 13 18 mph 1011.7mb 63f 61f
7:50am 8ft 8s 7s 16 20 mph 1011.4mb 63f 61f
6:50am 7.5ft 9s 6s 18 22 mph 1011.1mb 63f 62f
5:50am 7.5ft 8s 7s 20 22 mph 1010.9mb 63f 62f
4:50am 7ft 8s 7s 20 25 mph 1010.9mb 63f 62f
3:50am 7ft 8s 7s 18 25 mph 1011.1mb 63f 63f
2:50am 7ft 8s 7s 18 20 mph 1011.3mb 64f 63f
1:50am 6.5ft 8s 6s 16 18 mph 1011.6mb 64f 63f
12:50am 6ft 7s 6s 18 22 mph 1011.6mb 63f 63f
Sun 08/31 11:50pm 5ft 11s 6s 18 22 mph 1011.8mb 63f 63f
10:50pm 5.5ft 7s 6s 16 18 mph 1012.2mb 63f 63f
9:50pm 5.5ft 8s 5s 18 22 mph 1012.2mb 64f 63f
8:50pm 6.5ft 7s 6s 20 25 mph 1012.1mb 64f 63f
7:50pm 6ft 7s 5s 20 25 mph 1011.8mb 64f 63f
6:50pm 6.5ft 7s 6s 22 27 mph 1011.7mb 64f 63f
5:50pm 6ft 7s 6s 25 29 mph 1011.9mb 64f 63f
4:50pm 6ft 8s 5s 25 29 mph 1012.2mb 64f 63f
3:50pm 6ft 8s 6s 22 29 mph 1012.8mb 64f 63f
2:50pm 6ft 7s 6s 20 25 mph 1013.6mb 64f 63f
1:50pm 5.5ft 7s 6s 20 22 mph 1014.2mb 64f 63f
12:50pm 5.5ft 7s 6s 20 22 mph 1014.3mb 64f 63f
11:50am 5.5ft 7s 6s 18 22 mph 1014.6mb 64f 62f
10:50am 5ft 8s 5s 18 20 mph 1014.6mb 64f 63f
9:50am 5ft 7s 6s 18 22 mph 1014.5mb 64f 63f
8:50am 5ft 7s 6s 16 18 mph 1014.3mb 64f 63f
7:50am 5ft 7s 6s 20 22 mph 1013.8mb 64f 62f
6:50am 6ft 7s 6s 16 20 mph 1013.8mb 64f 63f
5:50am 6ft 8s 6s 18 22 mph 1013.5mb 64f 62f
4:50am 6ft 7s 6s 18 20 mph 1013.5mb 64f 63f
3:50am 6ft 7s 6s 18 20 mph 1013.7mb 64f 63f
2:50am 6ft 8s 6s 18 20 mph 1013.7mb 64f 63f
1:50am 6ft 7s 6s 20 25 mph 1013.6mb 64f 63f
12:50am 6.5ft 8s 6s 16 20 mph 1013.8mb 64f 63f
Sat 08/30 11:50pm 6ft 7s 6s 18 20 mph 1013.7mb 64f 63f
10:50pm 5ft 7s 6s 18 20 mph 1013.6mb 64f 64f
9:50pm 6ft 8s 6s 16 18 mph 1013.5mb 64f 64f
8:50pm 5.5ft 8s 6s 18 22 mph 1013.2mb 64f 64f
7:50pm 6ft 7s 6s 20 25 mph 1012.7mb 64f 64f
6:50pm 5.5ft 8s 6s 20 22 mph 1012.9mb 65f 64f
5:50pm 6ft 7s 6s 20 25 mph 1012.8mb 65f 64f
4:50pm 6ft 8s 6s 20 22 mph 1012.9mb 65f 64f
3:50pm 6ft 7s 6s 20 25 mph 1013mb 65f 63f
2:50pm 6ft 8s 6s 22 25 mph 1013.1mb 65f 63f
1:50pm 5.5ft 9s 6s 20 22 mph 1013.6mb 65f 63f
12:50pm 5.5ft 8s 6s 20 25 mph 1013.8mb 64f 63f
11:50am 5ft 7s 6s 18 20 mph 1014.2mb 64f 63f
10:50am 5.5ft 9s 6s 16 18 mph 1014.2mb 64f 63f
9:50am 5.5ft 7s 6s 11 16 mph 1013.8mb 64f 63f
8:50am 6ft 7s 6s 13 16 mph 1013.7mb 64f 63f
7:50am 5ft 7s 6s 11 13 mph 1013.4mb 64f 63f
6:50am 5.5ft 7s 6s 13 16 mph 1013mb 64f 63f
5:50am 5.5ft 10s 6s 13 18 mph 1012.7mb 64f 63f
4:50am 6ft 8s 7s 13 16 mph 1012.5mb 64f 62f
3:50am 5ft 8s 6s 16 18 mph 1012.6mb 64f 63f
2:50am 5.5ft 9s 6s 13 16 mph 1012.5mb 64f 63f
1:50am 5.5ft 10s 6s 13 18 mph 1013.1mb 64f 63f
12:50am 5.5ft 11s 6s 16 18 mph 1013.2mb 64f 63f
Fri 08/29 11:50pm 5.5ft 10s 6s 13 16 mph 1013.4mb 64f 63f
10:50pm 6ft 10s 6s 16 18 mph 1013.4mb 64f 63f